createdAt,value
2022-08-25T00:00:17.865Z,16.41
2022-08-25T00:02:55.648Z,16.38
2022-08-25T00:05:29.465Z,16.37
2022-08-25T00:08:00.878Z,16.37
2022-08-25T00:10:28.595Z,16.36
2022-08-25T00:12:55.854Z,16.39
2022-08-25T00:15:23.666Z,16.43
2022-08-25T00:17:51.556Z,16.42
2022-08-25T00:20:19.460Z,16.43
2022-08-25T00:22:46.828Z,16.44
2022-08-25T00:25:14.083Z,16.47
2022-08-25T00:27:41.573Z,16.49
2022-08-25T00:30:10.147Z,16.52
2022-08-25T00:32:40.366Z,16.54
2022-08-25T00:39:10.195Z,16.56
2022-08-25T00:41:40.356Z,16.58
2022-08-25T00:44:11.265Z,16.57
2022-08-25T00:46:47.715Z,16.58
2022-08-25T00:49:35.509Z,16.57
2022-08-25T00:56:03.708Z,16.42
2022-08-25T00:58:34.580Z,16.40
2022-08-25T01:05:11.816Z,16.29
2022-08-25T01:11:49.182Z,16.18
2022-08-25T01:14:20.314Z,16.18
2022-08-25T01:21:18.532Z,15.98
2022-08-25T01:23:47.400Z,15.98
2022-08-25T01:26:30.752Z,15.96
2022-08-25T01:29:49.900Z,15.92
2022-08-25T01:32:17.208Z,15.89
2022-08-25T01:38:44.401Z,15.78
2022-08-25T01:41:11.825Z,15.79
2022-08-25T01:43:39.454Z,15.76
2022-08-25T01:46:06.768Z,15.75
2022-08-25T01:53:11.743Z,15.67
2022-08-25T01:55:39.121Z,15.64
2022-08-25T01:58:06.740Z,15.62
2022-08-25T02:00:34.044Z,15.60
2022-08-25T02:03:01.244Z,15.59
2022-08-25T02:05:29.741Z,15.58
2022-08-25T02:07:59.970Z,15.58
2022-08-25T02:10:27.189Z,15.53
2022-08-25T02:17:05.612Z,15.45
2022-08-25T02:19:33.592Z,15.42
2022-08-25T02:22:01.920Z,15.35
2022-08-25T02:24:29.597Z,15.39
2022-08-25T02:27:43.838Z,15.36
2022-08-25T02:34:38.503Z,15.20
2022-08-25T02:37:05.743Z,15.23
2022-08-25T02:39:32.910Z,15.26
2022-08-25T02:45:59.751Z,15.17
2022-08-25T02:48:27.102Z,15.17
2022-08-25T02:55:07.337Z,15.04
2022-08-25T02:57:34.835Z,15.04
2022-08-25T03:04:24.111Z,14.97
2022-08-25T03:06:51.436Z,14.95
2022-08-25T03:09:18.722Z,14.98
2022-08-25T03:19:55.629Z,14.89
2022-08-25T03:22:22.837Z,14.88
2022-08-25T03:24:50.080Z,14.88
2022-08-25T03:31:27.358Z,14.79
2022-08-25T03:33:55.574Z,14.81
2022-08-25T03:36:23.934Z,14.81
2022-08-25T03:38:52.314Z,14.78
2022-08-25T03:41:31.676Z,14.72
2022-08-25T03:44:01.383Z,14.75
2022-08-25T03:46:33.863Z,14.74
2022-08-25T03:49:04.036Z,14.74
2022-08-25T03:51:38.354Z,14.74
2022-08-25T03:54:07.381Z,14.73
2022-08-25T03:56:34.735Z,14.72
2022-08-25T03:59:02.268Z,14.71
2022-08-25T04:09:39.356Z,14.51
2022-08-25T04:12:06.915Z,14.50
2022-08-25T04:14:34.391Z,14.50
2022-08-25T04:17:04.309Z,14.51
2022-08-25T04:19:31.602Z,14.47
2022-08-25T04:21:58.838Z,14.42
2022-08-25T04:24:26.244Z,14.44
2022-08-25T04:26:53.940Z,14.46
2022-08-25T04:29:25.331Z,14.46
2022-08-25T04:31:55.212Z,14.45
2022-08-25T04:34:30.507Z,14.42
2022-08-25T04:37:05.055Z,14.42
2022-08-25T04:39:32.870Z,14.42
2022-08-25T04:46:20.171Z,14.34
2022-08-25T04:48:50.921Z,14.35
2022-08-25T04:55:18.052Z,14.28
2022-08-25T04:57:45.340Z,14.28
2022-08-25T05:00:13.556Z,14.28
2022-08-25T05:02:41.007Z,14.31
2022-08-25T05:09:19.886Z,14.22
2022-08-25T05:11:49.438Z,14.25
2022-08-25T05:14:16.807Z,14.28
2022-08-25T05:16:44.362Z,14.31
2022-08-25T05:19:11.737Z,14.34
2022-08-25T05:21:39.035Z,14.37
2022-08-25T05:32:06.697Z,14.32
2022-08-25T05:34:33.985Z,14.38
2022-08-25T05:41:18.994Z,14.31
2022-08-25T05:43:49.554Z,14.34
2022-08-25T05:46:19.459Z,14.36
2022-08-25T05:48:47.035Z,14.40
2022-08-25T05:55:24.056Z,14.47
2022-08-25T05:57:51.290Z,14.56
2022-08-25T06:00:18.889Z,14.65
2022-08-25T06:02:46.188Z,14.75
2022-08-25T06:05:23.455Z,14.81
2022-08-25T06:07:53.041Z,14.88
2022-08-25T06:10:20.710Z,14.96
2022-08-25T06:12:49.549Z,15.07
2022-08-25T06:15:21.880Z,15.16
2022-08-25T06:17:50.848Z,15.28
2022-08-25T06:21:12.030Z,15.41
2022-08-25T06:23:40.471Z,15.49
2022-08-25T06:30:11.756Z,15.73
2022-08-25T06:32:41.814Z,15.85
2022-08-25T06:38:50.261Z,16.07
2022-08-25T06:41:17.518Z,16.18
2022-08-25T06:43:49.024Z,16.29
2022-08-25T06:46:35.871Z,16.38
2022-08-25T06:53:06.511Z,16.59
2022-08-25T06:55:34.336Z,16.67
2022-08-25T06:58:02.139Z,16.79
2022-08-25T07:00:33.549Z,16.88
2022-08-25T07:07:10.331Z,17.05
2022-08-25T07:10:52.208Z,17.21
2022-08-25T07:13:19.535Z,17.30
2022-08-25T07:15:46.962Z,17.38
2022-08-25T07:18:14.290Z,17.47
2022-08-25T07:20:41.651Z,17.54
2022-08-25T07:27:18.672Z,17.69
2022-08-25T07:29:45.931Z,17.77
2022-08-25T07:32:13.817Z,17.88
2022-08-25T07:38:50.504Z,18.07
2022-08-25T07:41:17.940Z,18.19
2022-08-25T07:47:25.600Z,18.32
2022-08-25T07:49:52.849Z,18.39
2022-08-25T07:52:20.339Z,18.47
2022-08-25T07:54:47.571Z,18.59
2022-08-25T07:57:15.023Z,18.68
2022-08-25T07:59:43.127Z,18.78
2022-08-25T08:02:17.779Z,18.90
2022-08-25T08:04:51.239Z,19.04
2022-08-25T08:07:36.962Z,19.15
2022-08-25T08:14:31.725Z,19.30
2022-08-25T08:21:19.906Z,19.46
2022-08-25T08:23:48.345Z,19.52
2022-08-25T08:26:17.561Z,19.58
2022-08-25T08:28:45.299Z,19.66
2022-08-25T08:31:25.510Z,19.76
2022-08-25T08:33:56.943Z,19.85
2022-08-25T08:36:25.758Z,19.94
2022-08-25T08:38:53.529Z,20.06
2022-08-25T08:42:07.645Z,20.11
2022-08-25T08:45:06.118Z,20.19
2022-08-25T08:48:32.522Z,20.27
2022-08-25T08:51:09.873Z,20.34
2022-08-25T08:53:54.772Z,20.42
2022-08-25T09:00:25.879Z,20.60
2022-08-25T09:03:07.689Z,20.69
2022-08-25T09:09:46.069Z,20.82
2022-08-25T09:16:45.927Z,21.04
2022-08-25T09:19:28.281Z,21.19
2022-08-25T09:22:35.568Z,21.31
2022-08-25T09:25:29.402Z,21.43
2022-08-25T09:28:20.752Z,21.50
2022-08-25T09:35:02.747Z,21.74
2022-08-25T09:37:30.587Z,21.83
2022-08-25T09:39:59.801Z,21.89
2022-08-25T09:42:49.881Z,22.01
2022-08-25T09:49:16.923Z,22.16
2022-08-25T09:51:44.203Z,22.30
2022-08-25T09:54:14.439Z,22.41
2022-08-25T10:04:40.029Z,22.62
2022-08-25T10:07:29.237Z,22.74
2022-08-25T10:10:03.633Z,22.87
2022-08-25T10:12:36.729Z,22.99
2022-08-25T10:19:22.704Z,23.31
2022-08-25T10:22:20.614Z,23.47
2022-08-25T10:24:49.472Z,23.61
2022-08-25T10:31:32.622Z,23.94
2022-08-25T10:34:25.486Z,24.13
2022-08-25T10:37:20.470Z,24.36
2022-08-25T10:40:07.113Z,24.51
2022-08-25T10:43:07.406Z,24.76
2022-08-25T10:49:49.925Z,25.23
2022-08-25T10:52:31.926Z,25.49
2022-08-25T10:55:06.627Z,25.61
2022-08-25T10:57:58.045Z,25.95
2022-08-25T11:00:33.346Z,26.38
2022-08-25T11:07:25.141Z,26.62
2022-08-25T11:10:45.835Z,27.27
2022-08-25T11:13:43.306Z,28.08
2022-08-25T11:16:28.626Z,28.86
2022-08-25T11:23:29.144Z,29.50
2022-08-25T11:26:08.311Z,29.77
2022-08-25T11:29:02.899Z,30.18
2022-08-25T11:40:11.553Z,31.18
2022-08-25T11:43:28.368Z,31.02
2022-08-25T11:46:27.830Z,30.31
2022-08-25T11:49:33.797Z,29.49
2022-08-25T11:52:03.174Z,28.91
2022-08-25T11:54:44.705Z,28.43
2022-08-25T11:57:24.915Z,28.08
2022-08-25T11:59:54.853Z,27.77
2022-08-25T12:06:33.747Z,26.97
2022-08-25T12:09:01.022Z,26.77
2022-08-25T12:15:42.857Z,26.21
2022-08-25T12:22:09.589Z,25.77
2022-08-25T12:24:50.306Z,25.61
2022-08-25T12:27:55.940Z,25.49
2022-08-25T12:35:13.908Z,25.23
2022-08-25T12:38:03.783Z,25.19
2022-08-25T12:40:36.291Z,25.27
2022-08-25T12:43:37.386Z,25.36
2022-08-25T12:46:23.288Z,25.49
2022-08-25T12:52:39.250Z,26.32
2022-08-25T12:59:20.275Z,27.26
2022-08-25T13:02:51.724Z,27.62
2022-08-25T13:05:48.366Z,27.92
2022-08-25T13:09:15.941Z,28.19
2022-08-25T13:16:07.311Z,28.79
2022-08-25T13:23:27.025Z,29.20
2022-08-25T13:25:58.873Z,29.44
2022-08-25T13:28:32.468Z,29.57
2022-08-25T13:35:52.351Z,29.69
2022-08-25T13:38:20.435Z,29.77
2022-08-25T13:40:48.206Z,29.86
2022-08-25T13:43:16.217Z,29.93
2022-08-25T13:50:22.804Z,29.96
2022-08-25T13:53:05.902Z,29.93
2022-08-25T13:55:59.485Z,29.54
2022-08-25T13:58:44.517Z,29.30
2022-08-25T14:01:44.082Z,29.03
2022-08-25T14:04:39.927Z,28.75
2022-08-25T14:07:21.888Z,28.56
2022-08-25T14:10:01.175Z,28.50
2022-08-25T14:12:39.544Z,28.49
2022-08-25T14:15:28.590Z,28.60
2022-08-25T14:18:20.931Z,28.49
2022-08-25T14:24:55.069Z,28.30
2022-08-25T14:27:22.616Z,28.41
2022-08-25T14:29:52.785Z,28.44
2022-08-25T14:32:20.361Z,28.67
2022-08-25T14:34:47.742Z,28.99
2022-08-25T14:37:20.125Z,29.27
2022-08-25T14:39:52.815Z,29.52
2022-08-25T14:42:20.660Z,29.82
2022-08-25T14:44:52.565Z,30.12
2022-08-25T14:47:19.926Z,30.45
2022-08-25T14:49:49.119Z,30.72
2022-08-25T14:56:16.254Z,31.18
2022-08-25T14:58:51.371Z,31.29
2022-08-25T15:01:29.193Z,31.46
2022-08-25T15:04:06.881Z,31.64
2022-08-25T15:18:32.025Z,31.28
2022-08-25T15:25:10.189Z,31.10
2022-08-25T15:27:37.773Z,30.81
2022-08-25T15:30:07.080Z,30.46
2022-08-25T15:32:34.547Z,30.06
2022-08-25T15:39:52.178Z,29.55
2022-08-25T15:42:19.716Z,29.64
2022-08-25T15:44:53.338Z,29.76
2022-08-25T15:47:22.572Z,29.82
2022-08-25T15:53:49.803Z,29.26
2022-08-25T15:56:17.048Z,28.96
2022-08-25T15:59:08.481Z,28.71
2022-08-25T16:01:36.382Z,28.46
2022-08-25T16:04:05.201Z,28.29
2022-08-25T16:06:33.902Z,28.16
2022-08-25T16:09:23.633Z,28.16
2022-08-25T16:11:56.752Z,28.13
2022-08-25T16:14:27.642Z,28.04
2022-08-25T16:16:58.046Z,27.90
2022-08-25T16:19:29.736Z,27.67
2022-08-25T16:21:59.033Z,27.50
2022-08-25T16:24:27.853Z,27.30
2022-08-25T16:26:55.818Z,27.04
2022-08-25T16:33:33.836Z,26.53
2022-08-25T16:36:10.128Z,26.43
2022-08-25T16:38:40.687Z,26.31
2022-08-25T16:41:13.042Z,26.23
2022-08-25T16:43:42.591Z,26.10
2022-08-25T16:50:19.874Z,25.79
2022-08-25T16:52:47.721Z,25.73
2022-08-25T16:55:16.947Z,25.69
2022-08-25T16:57:48.772Z,25.61
2022-08-25T17:00:21.754Z,25.55
2022-08-25T17:07:36.168Z,25.34
2022-08-25T17:10:07.410Z,25.30
2022-08-25T17:12:40.469Z,25.24
2022-08-25T17:20:00.032Z,25.01
2022-08-25T17:26:40.696Z,24.86
2022-08-25T17:32:51.029Z,24.69
2022-08-25T17:35:26.494Z,24.63
2022-08-25T17:51:46.964Z,24.17
2022-08-25T17:54:14.973Z,24.17
2022-08-25T18:00:34.755Z,24.07
2022-08-25T18:03:03.472Z,24.04
2022-08-25T18:05:33.530Z,23.98
2022-08-25T18:08:40.658Z,23.90
2022-08-25T18:11:08.622Z,23.78
2022-08-25T18:17:40.547Z,23.45
2022-08-25T18:23:59.837Z,23.28
2022-08-25T18:26:30.829Z,23.17
2022-08-25T18:29:00.028Z,23.10
2022-08-25T18:35:49.717Z,22.84
2022-08-25T18:38:17.014Z,22.74
2022-08-25T18:40:45.298Z,22.67
2022-08-25T18:51:32.848Z,22.35
2022-08-25T18:54:01.490Z,22.34
2022-08-25T18:56:29.986Z,22.28
2022-08-25T18:58:58.252Z,22.20
2022-08-25T19:09:32.951Z,21.94
2022-08-25T19:12:01.490Z,21.94
2022-08-25T19:15:05.030Z,21.89
2022-08-25T19:17:37.312Z,21.84
2022-08-25T19:20:11.151Z,21.81
2022-08-25T19:22:41.937Z,21.76
2022-08-25T19:33:01.277Z,21.58
2022-08-25T19:35:47.210Z,21.62
2022-08-25T19:42:37.224Z,21.58
2022-08-25T19:45:08.608Z,21.53
2022-08-25T19:51:52.153Z,21.39
2022-08-25T19:54:29.343Z,21.39
2022-08-25T19:56:57.351Z,21.40
2022-08-25T19:59:40.446Z,21.36
2022-08-25T20:02:19.322Z,21.31
2022-08-25T20:04:50.374Z,21.34
2022-08-25T20:11:28.973Z,21.26
2022-08-25T20:14:00.467Z,21.22
2022-08-25T20:16:30.893Z,21.19
2022-08-25T20:22:51.173Z,21.08
2022-08-25T20:26:08.417Z,21.07
2022-08-25T20:32:36.287Z,20.98
2022-08-25T20:35:09.028Z,20.99
2022-08-25T20:37:37.853Z,21.01
2022-08-25T20:40:07.817Z,21.00
2022-08-25T20:42:35.193Z,20.96
2022-08-25T20:45:07.854Z,20.94
2022-08-25T20:47:35.111Z,20.91
2022-08-25T20:50:06.575Z,20.89
2022-08-25T20:56:33.874Z,20.74
2022-08-25T20:59:01.176Z,20.76
2022-08-25T21:01:29.383Z,20.73
2022-08-25T21:03:56.905Z,20.71
2022-08-25T21:06:24.355Z,20.71
2022-08-25T21:08:52.244Z,20.67
2022-08-25T21:12:11.921Z,20.60
2022-08-25T21:14:53.510Z,20.58
2022-08-25T21:17:20.671Z,20.57
2022-08-25T21:22:16.268Z,20.56
2022-08-25T21:24:43.565Z,20.56
2022-08-25T21:27:12.035Z,20.54
2022-08-25T21:29:44.568Z,20.53
2022-08-25T21:32:17.885Z,20.49
2022-08-25T21:34:45.843Z,20.49
2022-08-25T21:37:14.585Z,20.48
2022-08-25T21:39:41.812Z,20.49
2022-08-25T21:44:41.081Z,20.42
2022-08-25T21:47:08.340Z,20.41
2022-08-25T21:49:37.377Z,20.40
2022-08-25T21:52:05.674Z,20.43
2022-08-25T21:54:33.171Z,20.39
2022-08-25T21:57:05.000Z,20.34
2022-08-25T21:59:36.687Z,20.31
2022-08-25T22:02:08.764Z,20.30
2022-08-25T22:04:38.880Z,20.23
2022-08-25T22:07:08.185Z,20.21
2022-08-25T22:09:36.550Z,20.19
2022-08-25T22:12:05.524Z,20.19
2022-08-25T22:14:34.708Z,20.15
2022-08-25T22:17:02.482Z,20.11
2022-08-25T22:20:00.883Z,20.03
2022-08-25T22:22:28.127Z,20.03
2022-08-25T22:24:55.350Z,20.02
2022-08-25T22:31:23.672Z,19.90
2022-08-25T22:33:52.407Z,19.91
2022-08-25T22:36:35.914Z,19.89
2022-08-25T22:39:06.621Z,19.90
2022-08-25T22:41:35.740Z,19.84
2022-08-25T22:44:09.227Z,19.86
2022-08-25T22:46:36.784Z,19.81
2022-08-25T22:49:03.994Z,19.78
2022-08-25T22:52:09.442Z,19.80
2022-08-25T22:58:40.436Z,19.71
2022-08-25T23:01:17.650Z,19.70
2022-08-25T23:07:54.857Z,19.61
2022-08-25T23:10:22.178Z,19.62
2022-08-25T23:16:49.663Z,19.52
2022-08-25T23:19:18.188Z,19.54
2022-08-25T23:25:56.022Z,19.45
2022-08-25T23:29:17.497Z,19.46
2022-08-25T23:32:35.523Z,19.45
2022-08-25T23:39:59.399Z,19.37
2022-08-25T23:42:26.643Z,19.38
2022-08-25T23:49:06.477Z,19.28
2022-08-25T23:51:38.109Z,19.31
